createdAt,value
2022-08-22T00:02:26.784Z,100215.46
2022-08-22T00:02:44.021Z,100161.92
2022-08-22T00:02:45.888Z,100152.00
2022-08-22T00:03:10.012Z,100188.35
2022-08-22T00:07:46.725Z,100214.28
2022-08-22T00:13:12.970Z,100215.16
2022-08-22T00:18:28.878Z,100215.44
2022-08-22T00:24:01.065Z,100220.41
2022-08-22T00:29:09.198Z,100222.20
2022-08-22T00:34:24.582Z,100221.05
2022-08-22T00:39:45.337Z,100223.31
2022-08-22T00:45:11.654Z,100230.55
2022-08-22T00:50:34.829Z,100234.47
2022-08-22T00:55:51.759Z,100241.69
2022-08-22T01:01:03.334Z,100241.00
2022-08-22T01:06:44.459Z,100247.98
2022-08-22T01:12:05.794Z,100247.02
2022-08-22T01:17:15.252Z,100249.12
2022-08-22T01:22:55.527Z,100248.36
2022-08-22T01:28:20.139Z,100248.52
2022-08-22T01:33:26.417Z,100248.18
2022-08-22T01:38:58.400Z,100251.95
2022-08-22T01:44:20.859Z,100249.95
2022-08-22T01:49:37.483Z,100249.80
2022-08-22T01:54:59.327Z,100247.64
2022-08-22T02:00:09.090Z,100249.98
2022-08-22T02:05:25.280Z,100249.61
2022-08-22T02:10:44.076Z,100254.38
2022-08-22T02:15:53.723Z,100255.90
2022-08-22T02:21:06.059Z,100255.99
2022-08-22T02:26:29.545Z,100260.52
2022-08-22T02:31:48.724Z,100259.61
2022-08-22T02:37:05.244Z,100259.41
2022-08-22T02:42:29.446Z,100261.39
2022-08-22T02:47:41.983Z,100257.17
2022-08-22T02:53:05.969Z,100264.63
2022-08-22T02:58:24.845Z,100260.27
2022-08-22T03:03:36.553Z,100259.31
2022-08-22T03:09:01.060Z,100260.39
2022-08-22T03:14:20.242Z,100262.94
2022-08-22T03:19:50.248Z,100265.63
2022-08-22T03:25:05.999Z,100273.27
2022-08-22T03:30:19.942Z,100275.50
2022-08-22T03:35:31.186Z,100279.55
2022-08-22T03:40:46.740Z,100284.57
2022-08-22T03:46:08.481Z,100283.93
2022-08-22T03:51:32.634Z,100282.38
2022-08-22T03:57:13.784Z,100280.05
2022-08-22T04:02:44.254Z,100281.02
2022-08-22T04:08:19.692Z,100280.48
2022-08-22T04:13:37.539Z,100276.79
2022-08-22T04:19:00.847Z,100279.86
2022-08-22T04:24:16.519Z,100288.06
2022-08-22T04:29:22.082Z,100288.74
2022-08-22T04:34:36.966Z,100291.95
2022-08-22T04:39:57.619Z,100294.10
2022-08-22T04:45:19.632Z,100296.19
2022-08-22T04:50:43.517Z,100298.41
2022-08-22T04:56:04.133Z,100302.94
2022-08-22T05:01:39.936Z,100309.92
2022-08-22T05:06:50.247Z,100308.83
2022-08-22T05:11:59.644Z,100312.41
2022-08-22T05:17:07.770Z,100314.55
2022-08-22T05:22:19.478Z,100320.71
2022-08-22T05:27:33.744Z,100324.85
2022-08-22T05:32:58.197Z,100325.59
2022-08-22T05:38:03.719Z,100327.48
2022-08-22T05:43:12.040Z,100327.12
2022-08-22T05:48:21.188Z,100329.08
2022-08-22T05:53:24.502Z,100329.35
2022-08-22T05:58:47.982Z,100327.91
2022-08-22T06:04:14.436Z,100332.02
2022-08-22T06:09:24.198Z,100339.41
2022-08-22T06:14:57.008Z,100339.81
2022-08-22T06:20:01.030Z,100337.52
2022-08-22T06:25:14.581Z,100343.20
2022-08-22T06:30:19.560Z,100345.73
2022-08-22T06:35:28.581Z,100340.61
2022-08-22T06:40:32.191Z,100341.73
2022-08-22T06:45:36.116Z,100343.52
2022-08-22T06:50:44.650Z,100345.41
2022-08-22T06:55:52.775Z,100347.81
2022-08-22T07:01:11.192Z,100355.43
2022-08-22T07:06:28.171Z,100355.16
2022-08-22T07:11:42.892Z,100363.25
2022-08-22T07:17:01.630Z,100365.18
2022-08-22T07:22:54.101Z,100359.39
2022-08-22T07:28:06.960Z,100363.41
2022-08-22T07:33:26.862Z,100367.08
2022-08-22T07:38:47.354Z,100363.81
2022-08-22T07:43:55.571Z,100367.35
2022-08-22T07:49:22.227Z,100374.65
2022-08-22T07:54:45.806Z,100376.88
2022-08-22T07:59:54.239Z,100378.60
2022-08-22T08:05:00.825Z,100379.48
2022-08-22T08:10:12.964Z,100378.75
2022-08-22T08:15:20.743Z,100381.55
2022-08-22T08:20:27.579Z,100380.19
2022-08-22T08:25:48.582Z,100377.11
2022-08-22T08:31:02.744Z,100374.93
2022-08-22T08:36:31.560Z,100374.09
2022-08-22T08:41:49.711Z,100372.59
2022-08-22T08:47:06.135Z,100375.65
2022-08-22T08:52:44.274Z,100374.36
2022-08-22T08:57:51.466Z,100375.68
2022-08-22T09:03:07.179Z,100371.17
2022-08-22T09:08:23.175Z,100370.77
2022-08-22T09:13:40.882Z,100366.49
2022-08-22T09:19:12.199Z,100360.73
2022-08-22T09:24:28.108Z,100359.44
2022-08-22T09:29:51.420Z,100364.21
2022-08-22T09:35:01.797Z,100364.54
2022-08-22T09:40:18.897Z,100372.48
2022-08-22T09:46:02.405Z,100375.76
2022-08-22T09:51:32.541Z,100371.70
2022-08-22T09:57:27.813Z,100370.30
2022-08-22T10:03:02.146Z,100373.45
2022-08-22T10:08:34.666Z,100377.77
2022-08-22T10:13:47.684Z,100371.77
2022-08-22T10:19:32.367Z,100374.84
2022-08-22T10:25:11.627Z,100384.23
2022-08-22T10:30:20.973Z,100386.38
2022-08-22T10:35:34.035Z,100378.96
2022-08-22T10:40:50.021Z,100374.39
2022-08-22T10:46:02.342Z,100380.23
2022-08-22T10:51:25.374Z,100382.81
2022-08-22T10:56:43.944Z,100381.67
2022-08-22T11:02:25.594Z,100384.14
2022-08-22T11:07:29.315Z,100382.45
2022-08-22T11:12:44.642Z,100379.39
2022-08-22T11:18:15.872Z,100374.47
2022-08-22T11:23:44.990Z,100377.15
2022-08-22T11:29:13.548Z,100383.94
2022-08-22T11:34:34.106Z,100383.23
2022-08-22T11:39:58.233Z,100384.80
2022-08-22T11:45:07.977Z,100380.29
2022-08-22T11:50:44.570Z,100382.48
2022-08-22T11:56:13.981Z,100393.23
2022-08-22T12:01:24.255Z,100387.39
2022-08-22T12:06:40.512Z,100386.38
2022-08-22T12:11:43.734Z,100385.73
2022-08-22T12:17:28.571Z,100384.91
2022-08-22T12:23:10.887Z,100379.90
2022-08-22T12:28:53.831Z,100379.27
2022-08-22T12:34:07.897Z,100378.52
2022-08-22T12:39:24.822Z,100380.49
2022-08-22T12:44:42.980Z,100378.46
2022-08-22T12:50:06.536Z,100377.48
2022-08-22T12:55:33.540Z,100378.90
2022-08-22T13:00:45.221Z,100380.78
2022-08-22T13:05:57.121Z,100375.63
2022-08-22T13:11:15.105Z,100372.19
2022-08-22T13:16:41.051Z,100362.77
2022-08-22T13:22:02.690Z,100362.34
2022-08-22T13:27:21.666Z,100365.59
2022-08-22T13:32:35.223Z,100366.52
2022-08-22T13:37:45.185Z,100361.78
2022-08-22T13:43:03.448Z,100365.17
2022-08-22T13:48:14.436Z,100361.10
2022-08-22T13:53:39.527Z,100356.53
2022-08-22T13:58:47.069Z,100356.22
2022-08-22T14:04:00.837Z,100359.33
2022-08-22T14:09:31.559Z,100357.67
2022-08-22T14:14:40.932Z,100351.39
2022-08-22T14:19:52.841Z,100345.39
2022-08-22T14:25:02.916Z,100342.98
2022-08-22T14:30:09.468Z,100339.55
2022-08-22T14:35:23.505Z,100336.31
2022-08-22T14:40:35.374Z,100333.79
2022-08-22T14:45:44.417Z,100338.79
2022-08-22T14:50:59.199Z,100340.96
2022-08-22T14:56:02.712Z,100339.44
2022-08-22T15:01:18.576Z,100343.41
2022-08-22T15:06:36.574Z,100347.83
2022-08-22T15:11:49.381Z,100350.02
2022-08-22T15:16:52.971Z,100350.58
2022-08-22T15:22:13.716Z,100350.90
2022-08-22T15:27:20.640Z,100349.79
2022-08-22T15:32:29.404Z,100349.12
2022-08-22T15:37:37.398Z,100343.19
2022-08-22T15:42:51.616Z,100348.98
2022-08-22T15:47:59.449Z,100350.89
2022-08-22T15:53:30.110Z,100349.73
2022-08-22T15:58:48.759Z,100347.54
2022-08-22T16:04:03.484Z,100342.83
2022-08-22T16:09:07.510Z,100340.36
2022-08-22T16:14:42.872Z,100336.91
2022-08-22T16:19:46.181Z,100330.95
2022-08-22T16:24:58.245Z,100326.52
2022-08-22T16:30:10.609Z,100330.71
2022-08-22T16:35:52.437Z,100333.60
2022-08-22T16:40:55.950Z,100340.59
2022-08-22T16:45:59.569Z,100343.95
2022-08-22T16:51:07.916Z,100345.48
2022-08-22T16:56:25.748Z,100350.91
2022-08-22T17:02:00.433Z,100350.50
2022-08-22T17:07:18.553Z,100354.84
2022-08-22T17:12:37.737Z,100361.14
2022-08-22T17:18:17.276Z,100369.70
2022-08-22T17:23:48.466Z,100374.64
2022-08-22T17:28:57.915Z,100377.83
2022-08-22T17:34:33.280Z,100374.30
2022-08-22T17:40:15.550Z,100378.14
2022-08-22T17:45:48.305Z,100382.60
2022-08-22T17:51:03.951Z,100389.39
2022-08-22T17:56:20.017Z,100384.64
2022-08-22T18:01:41.826Z,100389.73
2022-08-22T18:06:56.454Z,100395.85
2022-08-22T18:12:08.244Z,100405.67
2022-08-22T18:17:32.061Z,100420.30
2022-08-22T18:22:54.950Z,100422.52
2022-08-22T18:28:05.059Z,100425.36
2022-08-22T18:33:51.807Z,100431.42
2022-08-22T18:39:06.078Z,100436.53
2022-08-22T18:44:18.604Z,100438.99
2022-08-22T18:49:24.883Z,100434.63
2022-08-22T18:54:43.962Z,100431.73
2022-08-22T19:00:02.539Z,100428.16
2022-08-22T19:05:28.271Z,100430.08
2022-08-22T19:11:08.585Z,100421.32
2022-08-22T19:16:31.730Z,100422.96
2022-08-22T19:21:55.613Z,100426.31
2022-08-22T19:27:11.214Z,100422.13
2022-08-22T19:32:45.964Z,100420.92
2022-08-22T19:38:01.104Z,100421.13
2022-08-22T19:43:25.406Z,100424.05
2022-08-22T19:48:53.155Z,100419.71
2022-08-22T19:54:16.287Z,100416.42
2022-08-22T19:59:35.194Z,100427.62
2022-08-22T20:05:05.742Z,100433.17
2022-08-22T20:10:28.679Z,100434.23
2022-08-22T20:15:33.930Z,100432.04
2022-08-22T20:20:56.522Z,100432.92
2022-08-22T20:26:01.119Z,100433.89
2022-08-22T20:31:12.792Z,100428.00
2022-08-22T20:36:28.610Z,100421.89
2022-08-22T20:41:37.732Z,100423.77
2022-08-22T20:46:55.334Z,100425.45
2022-08-22T20:52:14.969Z,100420.05
2022-08-22T20:57:20.124Z,100420.71
2022-08-22T21:02:38.595Z,100418.46
2022-08-22T21:07:45.318Z,100416.83
2022-08-22T21:13:04.973Z,100405.05
2022-08-22T21:18:09.581Z,100410.15
2022-08-22T21:23:15.728Z,100408.79
2022-08-22T21:28:42.140Z,100412.39
2022-08-22T21:33:48.733Z,100399.20
2022-08-22T21:39:06.688Z,100394.36
2022-08-22T21:44:27.815Z,100390.80
2022-08-22T21:49:31.267Z,100386.77
2022-08-22T21:54:40.287Z,100376.66
2022-08-22T21:59:51.576Z,100368.45
2022-08-22T22:05:09.728Z,100365.73
2022-08-22T22:10:18.042Z,100371.30
2022-08-22T22:15:25.154Z,100369.41
2022-08-22T22:20:28.578Z,100364.23
2022-08-22T22:25:40.446Z,100354.57
2022-08-22T22:30:46.044Z,100355.41
2022-08-22T22:35:50.277Z,100352.90
2022-08-22T22:40:53.893Z,100360.08
2022-08-22T22:45:57.942Z,100366.62
2022-08-22T22:51:10.796Z,100361.64
2022-08-22T22:56:21.331Z,100357.33
2022-08-22T23:01:27.811Z,100357.80
2022-08-22T23:06:32.956Z,100353.27
2022-08-22T23:11:36.491Z,100345.09
2022-08-22T23:16:40.323Z,100345.84
2022-08-22T23:21:46.564Z,100340.91
2022-08-22T23:26:49.781Z,100329.73
2022-08-22T23:31:55.367Z,100322.52
2022-08-22T23:37:00.930Z,100323.37
2022-08-22T23:42:06.233Z,100325.96
2022-08-22T23:47:10.623Z,100332.98
2022-08-22T23:52:14.141Z,100336.07
2022-08-22T23:57:17.491Z,100331.02
